UACC/TSE METAR and TAF weather

Enter ICAO airport designator
Station Type Date Time Source
UACC METAR 2020/07/06 02:30 UTC NOAA

UACC 060230Z VRB01MPS CAVOK 19/13 Q1010 R04/0///70 NOSIG RMK QFE726/0969


Station Type Date Time Source
UACC Decoded METAR 2020/07/06 02:30 UTC NOAA

Astana, Kazakhstan (UACC) 51-12N 071-27E
Jul 05, 2020 - 10:30 PM EDT / 2020.07.06 0230 UTC
Wind: Variable at 2 MPH (2 KT):0
Visibility: greater than 7 mile(s):0
Temperature: 66 F (19 C)
Dew Point: 55 F (13 C)
Relative Humidity: 68%
Pressure (altimeter): 29.83 in. Hg (1010 hPa)
ob: UACC 060230Z VRB01MPS CAVOK 19/13 Q1010 R04/0///70 NOSIG RMK QFE726/0969
cycle: 2

Station Type Date Time Source
UACC TAF 2020/07/05 18:21 UTC NOAA

TAF UACC 051700Z 0518/0618 VRB02MPS SCT020 BKN100 TX26/0610Z TN11/0523Z
TEMPO 0518/0604 36004MPS
BECMG 0604/0606 SCT040 BKN100
TEMPO 0605/0618 34005MPS FEW030CB

Example: see airport list